首页
METAR-TAF:

METAR-TAF

机场 :

古尔代盖国际机场

洪加達, 埃及

纬度: 27-09N, 经度: 033-43E, 海拔: 16米

当前天气观测

该预报发布于1小时和2分钟前的02:00 UTC
静风
温度 21°C
湿度 23%
气压 1010 hPa
能见度10公里或以上
1500米以下无云,无积雨云

METAR: HEGN 170200Z 00000KT CAVOK 21/M01 Q1010 NOSIG

时间: 05:02 (03:02 UTC)

预报

该预报发布于4小时和2分钟前的23:00 UTC
预报有效从17日的 00点(UTC)到 18日的 06点(UTC)
风速6节,风向西
能见度10公里或以上
1500米以下无云,无积雨云

TAF: HEGN 162300Z 1700/1806 27006KT CAVOK

超过4000个机场的气象观测和天气预报(METAR&TAF报告)。

可查询的气象台以黄色和红色小点在地图上表示。

将鼠标移到小点上方,可查看气象台名称。

然后点击查看天气观测和预报。

如需切换地图:点击带黑十字的绿色按钮放大地图;点击带横线的绿色按钮缩小地图;或者点击绿色箭头查看邻近地区的地图。


METAR-TAF: